createdAt,value
2023-01-31T00:01:40.221Z,3.00
2023-01-31T00:04:09.888Z,2.30
2023-01-31T00:06:40.286Z,2.28
2023-01-31T00:09:09.310Z,1.90
2023-01-31T00:11:36.280Z,2.00
2023-01-31T00:16:31.566Z,1.60
2023-01-31T00:18:58.084Z,2.17
2023-01-31T00:21:27.773Z,2.67
2023-01-31T00:23:55.669Z,1.50
2023-01-31T00:26:24.772Z,1.83
2023-01-31T00:28:56.536Z,2.13
2023-01-31T00:31:25.610Z,2.17
2023-01-31T00:33:54.077Z,2.10
2023-01-31T00:36:30.089Z,2.05
2023-01-31T00:38:58.671Z,2.10
2023-01-31T00:41:29.045Z,2.42
2023-01-31T00:43:55.803Z,2.45
2023-01-31T00:46:23.839Z,2.50
2023-01-31T00:48:50.963Z,2.28
2023-01-31T00:53:45.093Z,3.13
2023-01-31T00:58:45.910Z,2.20
2023-01-31T01:01:16.711Z,2.35
2023-01-31T01:03:45.441Z,2.83
2023-01-31T01:06:13.415Z,2.60
2023-01-31T01:08:43.500Z,2.72
2023-01-31T01:11:19.222Z,2.05
2023-01-31T01:13:46.279Z,2.20
2023-01-31T01:16:32.904Z,2.38
2023-01-31T01:19:05.292Z,2.58
2023-01-31T01:21:33.437Z,2.60
2023-01-31T01:24:01.900Z,2.00
2023-01-31T01:26:31.077Z,2.13
2023-01-31T01:29:01.470Z,2.38
2023-01-31T01:31:31.166Z,2.30
2023-01-31T01:34:18.038Z,2.50
2023-01-31T01:36:47.614Z,2.45
2023-01-31T01:39:16.527Z,2.15
2023-01-31T01:41:43.539Z,1.40
2023-01-31T01:44:41.125Z,1.88
2023-01-31T01:47:20.757Z,2.15
2023-01-31T01:49:56.329Z,1.67
2023-01-31T01:52:25.913Z,1.95
2023-01-31T01:55:13.163Z,2.03
2023-01-31T01:57:44.277Z,1.95
2023-01-31T02:00:17.488Z,1.55
2023-01-31T02:02:46.154Z,1.80
2023-01-31T02:05:18.342Z,1.88
2023-01-31T02:07:45.557Z,2.10
2023-01-31T02:10:22.723Z,1.80
2023-01-31T02:12:49.612Z,1.40
2023-01-31T02:15:16.259Z,1.45
2023-01-31T02:17:43.702Z,1.55
2023-01-31T02:20:42.765Z,2.50
2023-01-31T02:23:47.199Z,2.13
2023-01-31T02:26:30.528Z,1.70
2023-01-31T02:29:32.328Z,1.30
2023-01-31T02:32:17.737Z,1.63
2023-01-31T02:34:51.236Z,1.93
2023-01-31T02:37:34.913Z,1.85
2023-01-31T02:40:08.837Z,1.50
2023-01-31T02:42:53.392Z,1.20
2023-01-31T02:45:29.584Z,1.70
2023-01-31T02:48:05.152Z,1.50
2023-01-31T02:50:54.901Z,1.60
2023-01-31T02:53:31.395Z,1.60
2023-01-31T02:56:18.203Z,1.80
2023-01-31T02:59:10.350Z,2.35
2023-01-31T03:01:41.474Z,2.03
2023-01-31T03:04:11.641Z,1.75
2023-01-31T03:07:00.027Z,1.70
2023-01-31T03:09:37.671Z,1.80
2023-01-31T03:12:30.601Z,2.67
2023-01-31T03:14:58.664Z,1.60
2023-01-31T03:20:10.319Z,1.83
2023-01-31T03:22:46.437Z,1.55
2023-01-31T03:25:17.102Z,1.58
2023-01-31T03:27:52.775Z,2.42
2023-01-31T03:30:27.647Z,2.10
2023-01-31T03:33:01.547Z,1.73
2023-01-31T03:35:31.986Z,3.10
2023-01-31T03:38:08.755Z,1.83
2023-01-31T03:40:49.067Z,2.28
2023-01-31T03:43:22.450Z,2.00
2023-01-31T03:46:11.631Z,2.42
2023-01-31T03:48:48.662Z,2.55
2023-01-31T03:51:22.925Z,1.60
2023-01-31T03:53:58.819Z,1.65
2023-01-31T03:57:00.147Z,2.75
2023-01-31T03:59:32.627Z,1.70
2023-01-31T04:02:01.879Z,1.65
2023-01-31T04:04:34.768Z,2.08
2023-01-31T04:07:01.963Z,2.22
2023-01-31T04:09:30.467Z,2.15
2023-01-31T04:12:00.633Z,2.65
2023-01-31T04:14:28.003Z,1.83
2023-01-31T04:16:54.863Z,2.05
2023-01-31T04:19:21.407Z,2.20
2023-01-31T04:21:47.939Z,1.58
2023-01-31T04:24:14.601Z,1.52
2023-01-31T04:26:41.222Z,2.05
2023-01-31T04:29:07.786Z,1.52
2023-01-31T04:31:34.625Z,2.17
2023-01-31T04:34:01.900Z,3.00
2023-01-31T04:36:28.651Z,1.77
2023-01-31T04:38:55.250Z,2.63
2023-01-31T04:41:21.733Z,1.33
2023-01-31T04:43:48.432Z,2.47
2023-01-31T04:46:15.149Z,2.05
2023-01-31T04:48:41.927Z,2.33
2023-01-31T04:51:09.642Z,2.20
2023-01-31T04:53:36.429Z,2.15
2023-01-31T04:56:03.959Z,2.05
2023-01-31T04:58:30.639Z,2.38
2023-01-31T05:00:57.346Z,2.20
2023-01-31T05:03:24.025Z,1.90
2023-01-31T05:05:51.386Z,1.65
2023-01-31T05:08:18.145Z,2.35
2023-01-31T05:10:44.964Z,2.47
2023-01-31T05:13:11.802Z,2.70
2023-01-31T05:15:40.217Z,2.70
2023-01-31T05:18:07.080Z,2.47
2023-01-31T05:20:39.804Z,2.05
2023-01-31T05:23:07.055Z,2.20
2023-01-31T05:25:35.994Z,2.47
2023-01-31T05:28:03.359Z,2.17
2023-01-31T05:30:30.339Z,2.45
2023-01-31T05:32:56.927Z,2.38
2023-01-31T05:35:23.853Z,2.58
2023-01-31T05:37:50.362Z,1.88
2023-01-31T05:40:17.677Z,2.67
2023-01-31T05:42:44.358Z,2.25
2023-01-31T05:45:12.292Z,2.42
2023-01-31T05:47:38.833Z,3.00
2023-01-31T05:50:05.853Z,2.70
2023-01-31T05:54:59.541Z,2.25
2023-01-31T05:59:52.591Z,2.47
2023-01-31T06:02:19.347Z,4.30
2023-01-31T06:04:46.025Z,2.33
2023-01-31T06:07:15.176Z,2.40
2023-01-31T06:09:41.928Z,2.60
2023-01-31T06:12:17.423Z,2.38
2023-01-31T06:14:46.078Z,2.45
2023-01-31T06:17:12.861Z,3.08
2023-01-31T06:19:39.488Z,2.90
2023-01-31T06:22:06.048Z,3.40
2023-01-31T06:24:33.001Z,3.17
2023-01-31T06:29:26.618Z,2.50
2023-01-31T06:31:53.687Z,3.47
2023-01-31T06:36:47.179Z,2.17
2023-01-31T06:39:14.527Z,2.85
2023-01-31T06:41:41.462Z,2.90
2023-01-31T06:44:08.051Z,1.98
2023-01-31T06:46:35.379Z,3.60
2023-01-31T06:49:02.003Z,2.85
2023-01-31T06:51:28.655Z,2.47
2023-01-31T06:53:56.674Z,3.20
2023-01-31T06:56:23.747Z,2.17
2023-01-31T06:58:50.406Z,2.60
2023-01-31T07:01:17.093Z,2.60
2023-01-31T07:03:44.215Z,2.25
2023-01-31T07:06:11.873Z,3.28
2023-01-31T07:08:38.603Z,2.70
2023-01-31T07:11:05.524Z,2.90
2023-01-31T07:13:32.599Z,2.90
2023-01-31T07:18:28.573Z,2.40
2023-01-31T07:20:59.937Z,2.83
2023-01-31T07:23:27.806Z,2.97
2023-01-31T07:25:54.570Z,3.13
2023-01-31T07:28:21.276Z,2.47
2023-01-31T07:30:51.872Z,3.08
2023-01-31T07:33:21.015Z,2.72
2023-01-31T07:35:47.565Z,2.72
2023-01-31T07:38:14.256Z,2.85
2023-01-31T07:40:40.824Z,2.80
2023-01-31T07:43:07.475Z,3.28
2023-01-31T07:45:34.077Z,3.15
2023-01-31T07:48:00.796Z,3.17
2023-01-31T07:50:27.811Z,3.33
2023-01-31T07:55:21.581Z,2.50
2023-01-31T07:57:48.598Z,3.70
2023-01-31T08:00:34.194Z,2.65
2023-01-31T08:03:20.779Z,4.00
2023-01-31T08:05:47.935Z,3.45
2023-01-31T08:08:14.764Z,3.97
2023-01-31T08:10:41.430Z,3.35
2023-01-31T08:13:08.113Z,3.53
2023-01-31T08:15:35.006Z,3.55
2023-01-31T08:18:02.887Z,4.22
2023-01-31T08:20:31.727Z,4.07
2023-01-31T08:25:29.277Z,4.43
2023-01-31T08:28:00.257Z,5.05
2023-01-31T08:30:27.834Z,4.30
2023-01-31T08:32:54.979Z,4.43
2023-01-31T08:37:48.857Z,4.30
2023-01-31T08:40:15.609Z,4.07
2023-01-31T08:42:42.788Z,5.63
2023-01-31T08:45:10.177Z,4.38
2023-01-31T08:47:37.296Z,4.20
2023-01-31T08:55:02.272Z,4.03
2023-01-31T08:57:30.216Z,5.40
2023-01-31T08:59:57.155Z,4.88
2023-01-31T09:02:23.888Z,4.47
2023-01-31T09:04:50.570Z,4.10
2023-01-31T09:07:21.490Z,4.55
2023-01-31T09:09:49.019Z,4.70
2023-01-31T09:12:15.795Z,4.65
2023-01-31T09:14:42.434Z,4.88
2023-01-31T09:17:10.784Z,5.20
2023-01-31T09:19:38.824Z,5.75
2023-01-31T09:22:05.448Z,5.18
2023-01-31T09:24:32.311Z,4.60
2023-01-31T09:26:58.939Z,4.85
2023-01-31T09:29:25.498Z,5.63
2023-01-31T09:31:52.764Z,5.10
2023-01-31T09:34:19.566Z,5.65
2023-01-31T09:36:46.091Z,5.95
2023-01-31T09:39:12.744Z,6.05
2023-01-31T09:41:48.112Z,5.03
2023-01-31T09:44:45.807Z,4.95
2023-01-31T09:47:28.461Z,6.15
2023-01-31T09:50:00.966Z,5.28
2023-01-31T09:52:28.515Z,4.82
2023-01-31T09:54:55.423Z,5.15
2023-01-31T09:57:30.802Z,5.50
2023-01-31T10:00:10.612Z,4.93
2023-01-31T10:02:51.684Z,6.35
2023-01-31T10:05:45.258Z,5.00
2023-01-31T10:08:39.880Z,5.60
2023-01-31T10:11:13.646Z,5.20
2023-01-31T10:13:46.583Z,5.78
2023-01-31T10:16:31.683Z,7.38
2023-01-31T10:19:04.240Z,5.10
2023-01-31T10:21:41.436Z,6.63
2023-01-31T10:24:39.516Z,4.75
2023-01-31T10:27:15.990Z,4.50
2023-01-31T10:29:55.885Z,4.53
2023-01-31T10:32:28.226Z,5.53
2023-01-31T10:35:04.826Z,4.72
2023-01-31T10:37:44.568Z,4.55
2023-01-31T10:40:26.268Z,4.75
2023-01-31T10:43:00.366Z,4.55
2023-01-31T10:45:31.940Z,4.20
2023-01-31T10:48:16.777Z,4.72
2023-01-31T10:50:53.438Z,4.43
2023-01-31T10:53:38.027Z,3.80
2023-01-31T10:56:06.371Z,5.13
2023-01-31T10:58:35.390Z,4.45
2023-01-31T11:01:07.454Z,4.43
2023-01-31T11:03:35.163Z,5.10
2023-01-31T11:06:01.747Z,4.63
2023-01-31T11:08:35.267Z,5.60
2023-01-31T11:11:11.364Z,4.38
2023-01-31T11:13:38.660Z,4.57
2023-01-31T11:16:09.576Z,4.30
2023-01-31T11:18:46.235Z,4.75
2023-01-31T11:21:26.595Z,3.85
2023-01-31T11:24:01.631Z,4.45
2023-01-31T11:26:32.446Z,4.07
2023-01-31T11:28:59.751Z,4.25
2023-01-31T11:34:17.793Z,3.72
2023-01-31T11:36:46.384Z,4.07
2023-01-31T11:39:42.607Z,3.75
2023-01-31T11:42:15.352Z,3.95
2023-01-31T11:45:17.086Z,4.20
2023-01-31T11:47:47.293Z,4.60
2023-01-31T11:50:22.131Z,3.95
2023-01-31T11:52:55.893Z,2.95
2023-01-31T11:55:22.932Z,3.53
2023-01-31T12:00:29.601Z,3.45
2023-01-31T12:03:08.542Z,2.95
2023-01-31T12:05:45.776Z,3.33
2023-01-31T12:08:38.407Z,2.10
2023-01-31T12:11:25.416Z,2.10
2023-01-31T12:13:54.793Z,2.58
2023-01-31T12:16:25.340Z,2.10
2023-01-31T12:19:26.989Z,2.83
2023-01-31T12:22:09.994Z,2.30
2023-01-31T12:25:03.956Z,2.10
2023-01-31T12:27:49.464Z,1.85
2023-01-31T12:31:10.079Z,1.75
2023-01-31T12:33:50.187Z,2.13
2023-01-31T12:36:44.578Z,1.83
2023-01-31T12:39:15.942Z,1.92
2023-01-31T12:42:07.364Z,2.17
2023-01-31T12:44:42.686Z,2.15
2023-01-31T12:47:24.769Z,2.13
2023-01-31T12:50:02.165Z,2.13
2023-01-31T12:52:54.559Z,1.70
2023-01-31T12:55:38.057Z,1.90
2023-01-31T12:58:32.621Z,1.65
2023-01-31T13:01:27.560Z,2.17
2023-01-31T13:04:11.472Z,1.70
2023-01-31T13:06:43.782Z,2.10
2023-01-31T13:09:25.702Z,2.30
2023-01-31T13:11:58.510Z,2.30
2023-01-31T13:14:30.416Z,2.25
2023-01-31T13:17:02.568Z,3.33
2023-01-31T13:19:43.569Z,3.55
2023-01-31T13:22:20.638Z,3.28
2023-01-31T13:24:53.822Z,3.17
2023-01-31T13:27:32.389Z,2.92
2023-01-31T13:30:10.910Z,3.85
2023-01-31T13:32:49.889Z,4.25
2023-01-31T13:35:32.589Z,4.15
2023-01-31T13:38:02.938Z,3.80
2023-01-31T13:40:42.435Z,3.00
2023-01-31T13:43:14.504Z,3.55
2023-01-31T13:46:05.884Z,4.05
2023-01-31T13:49:06.075Z,4.00
2023-01-31T13:51:48.204Z,3.20
2023-01-31T13:54:24.851Z,3.88
2023-01-31T13:56:54.995Z,4.07
2023-01-31T13:59:28.483Z,4.15
2023-01-31T14:01:58.749Z,4.40
2023-01-31T14:04:40.096Z,4.30
2023-01-31T14:07:06.993Z,4.63
2023-01-31T14:10:02.987Z,4.50
2023-01-31T14:12:37.198Z,5.28
2023-01-31T14:15:42.637Z,4.32
2023-01-31T14:18:09.467Z,4.78
2023-01-31T14:20:35.990Z,4.35
2023-01-31T14:23:31.037Z,4.57
2023-01-31T14:25:57.767Z,4.72
2023-01-31T14:28:26.512Z,3.80
2023-01-31T14:30:55.375Z,4.32
2023-01-31T14:33:25.092Z,3.63
2023-01-31T14:36:12.835Z,4.20
2023-01-31T14:39:03.927Z,4.70
2023-01-31T14:41:48.527Z,4.00
2023-01-31T14:44:53.439Z,4.72
2023-01-31T14:47:52.665Z,3.80
2023-01-31T14:50:46.746Z,4.05
2023-01-31T14:53:40.706Z,4.35
2023-01-31T14:56:26.904Z,3.65
2023-01-31T14:58:54.321Z,4.75
2023-01-31T15:01:24.045Z,4.10
2023-01-31T15:03:54.965Z,3.58
2023-01-31T15:06:40.451Z,3.45
2023-01-31T15:09:16.042Z,3.03
2023-01-31T15:11:47.690Z,2.63
2023-01-31T15:14:36.412Z,2.50
2023-01-31T15:17:27.260Z,2.90
2023-01-31T15:20:24.119Z,3.50
2023-01-31T15:22:57.240Z,4.15
2023-01-31T15:25:34.924Z,4.15
2023-01-31T15:28:03.397Z,3.88
2023-01-31T15:30:34.186Z,4.65
2023-01-31T15:33:08.497Z,4.38
2023-01-31T15:35:46.458Z,5.47
2023-01-31T15:38:35.094Z,5.65
2023-01-31T15:41:43.724Z,4.55
2023-01-31T15:44:19.694Z,5.05
2023-01-31T15:46:51.580Z,4.70
2023-01-31T15:49:40.524Z,4.15
2023-01-31T15:52:07.880Z,5.43
2023-01-31T15:54:35.542Z,6.50
2023-01-31T15:57:03.355Z,5.28
2023-01-31T15:59:32.868Z,6.00
2023-01-31T16:02:04.755Z,4.60
2023-01-31T16:04:31.511Z,5.45
2023-01-31T16:07:01.308Z,5.00
2023-01-31T16:09:33.047Z,5.40
2023-01-31T16:12:02.050Z,7.07
2023-01-31T16:14:29.990Z,5.05
2023-01-31T16:16:58.501Z,5.45
2023-01-31T16:19:33.485Z,5.28
2023-01-31T16:22:00.091Z,5.75
2023-01-31T16:24:27.148Z,5.90
2023-01-31T16:27:15.171Z,4.47
2023-01-31T16:29:49.431Z,5.43
2023-01-31T16:32:25.044Z,4.05
2023-01-31T16:35:04.865Z,3.20
2023-01-31T16:37:43.621Z,3.85
2023-01-31T16:40:29.510Z,3.03
2023-01-31T16:43:18.965Z,2.95
2023-01-31T16:46:14.211Z,3.83
2023-01-31T16:48:42.040Z,3.40
2023-01-31T16:51:30.158Z,3.53
2023-01-31T16:54:16.343Z,3.60
2023-01-31T16:56:44.696Z,2.97
2023-01-31T16:59:33.577Z,3.90
2023-01-31T17:02:05.476Z,3.50
2023-01-31T17:04:32.536Z,4.35
2023-01-31T17:07:05.495Z,3.40
2023-01-31T17:09:32.847Z,4.50
2023-01-31T17:11:59.767Z,4.40
2023-01-31T17:14:26.552Z,3.40
2023-01-31T17:16:54.407Z,4.53
2023-01-31T17:19:21.090Z,4.18
2023-01-31T17:21:49.678Z,4.53
2023-01-31T17:24:18.806Z,6.63
2023-01-31T17:26:45.900Z,5.03
2023-01-31T17:29:12.727Z,5.28
2023-01-31T17:31:41.999Z,4.32
2023-01-31T17:34:13.966Z,4.28
2023-01-31T17:36:40.915Z,4.28
2023-01-31T17:39:07.831Z,4.82
2023-01-31T17:44:03.008Z,4.95
2023-01-31T17:46:31.396Z,3.47
2023-01-31T17:48:58.306Z,5.65
2023-01-31T17:51:25.023Z,4.45
2023-01-31T17:53:51.633Z,3.97
2023-01-31T17:56:18.765Z,4.93
2023-01-31T17:58:45.689Z,4.85
2023-01-31T18:01:16.437Z,5.47
2023-01-31T18:03:43.579Z,4.70
2023-01-31T18:08:38.266Z,4.80
2023-01-31T18:11:15.022Z,4.00
2023-01-31T18:13:41.963Z,5.45
2023-01-31T18:16:11.784Z,5.30
2023-01-31T18:18:43.774Z,5.15
2023-01-31T18:21:13.437Z,4.78
2023-01-31T18:23:40.085Z,6.03
2023-01-31T18:26:08.708Z,5.65
2023-01-31T18:28:35.948Z,5.63
2023-01-31T18:31:10.724Z,5.30
2023-01-31T18:33:37.954Z,4.72
2023-01-31T18:36:06.008Z,5.20
2023-01-31T18:38:33.062Z,5.75
2023-01-31T18:43:29.694Z,5.88
2023-01-31T18:45:56.294Z,5.60
2023-01-31T18:48:22.904Z,5.88
2023-01-31T18:50:49.841Z,5.45
2023-01-31T18:53:16.374Z,6.88
2023-01-31T18:55:43.381Z,5.95
2023-01-31T19:00:36.620Z,6.00
2023-01-31T19:03:03.750Z,5.32
2023-01-31T19:05:30.563Z,4.80
2023-01-31T19:07:57.324Z,4.70
2023-01-31T19:10:26.288Z,4.72
2023-01-31T19:12:55.180Z,4.95
2023-01-31T19:15:22.052Z,5.22
2023-01-31T19:20:15.717Z,5.15
2023-01-31T19:22:42.440Z,5.25
2023-01-31T19:25:11.035Z,6.05
2023-01-31T19:27:39.992Z,5.07
2023-01-31T19:30:07.185Z,5.15
2023-01-31T19:32:33.919Z,6.03
2023-01-31T19:35:00.557Z,4.80
2023-01-31T19:37:28.645Z,6.88
2023-01-31T19:39:55.398Z,6.85
2023-01-31T19:42:22.007Z,6.43
2023-01-31T19:44:48.952Z,6.75
2023-01-31T19:47:15.752Z,6.78
2023-01-31T19:49:42.351Z,6.57
2023-01-31T19:52:09.461Z,6.00
2023-01-31T19:54:36.117Z,6.55
2023-01-31T19:57:02.743Z,5.97
2023-01-31T19:59:29.541Z,5.90
2023-01-31T20:01:56.059Z,5.05
2023-01-31T20:04:25.312Z,5.72
2023-01-31T20:06:52.356Z,5.10
2023-01-31T20:11:47.013Z,5.53
2023-01-31T20:14:13.739Z,7.63
2023-01-31T20:16:40.444Z,5.97
2023-01-31T20:19:07.618Z,6.07
2023-01-31T20:28:56.023Z,6.20
2023-01-31T20:31:24.915Z,5.10
2023-01-31T20:33:52.566Z,6.55
2023-01-31T20:36:19.852Z,5.53
2023-01-31T20:38:47.363Z,5.43
2023-01-31T20:41:15.370Z,4.75
2023-01-31T20:43:42.433Z,4.90
2023-01-31T20:48:38.909Z,5.55
2023-01-31T20:51:06.240Z,4.18
2023-01-31T20:53:33.585Z,3.72
2023-01-31T20:56:05.825Z,4.90
2023-01-31T20:58:34.828Z,4.15
2023-01-31T21:01:05.423Z,4.38
2023-01-31T21:03:33.285Z,4.50
2023-01-31T21:06:01.270Z,4.80
2023-01-31T21:08:28.980Z,3.78
2023-01-31T21:10:57.297Z,4.18
2023-01-31T21:13:27.815Z,5.18
2023-01-31T21:15:57.611Z,4.47
2023-01-31T21:18:30.863Z,4.75
2023-01-31T21:20:57.870Z,5.53
2023-01-31T21:25:51.447Z,4.90
2023-01-31T21:28:18.201Z,3.58
2023-01-31T21:30:45.187Z,4.22
2023-01-31T21:35:38.629Z,4.10
2023-01-31T21:38:05.444Z,4.93
2023-01-31T21:40:32.112Z,4.22
2023-01-31T21:42:59.268Z,5.00
2023-01-31T21:45:41.213Z,3.85
2023-01-31T21:48:28.286Z,4.43
2023-01-31T21:50:55.833Z,4.97
2023-01-31T21:53:22.420Z,3.50
2023-01-31T21:55:49.185Z,4.18
2023-01-31T21:58:16.335Z,3.97
2023-01-31T22:00:44.154Z,3.28
2023-01-31T22:03:11.199Z,3.22
2023-01-31T22:05:37.931Z,3.95
2023-01-31T22:08:04.836Z,4.63
2023-01-31T22:12:58.245Z,4.38
2023-01-31T22:15:25.160Z,3.63
2023-01-31T22:17:52.531Z,4.30
2023-01-31T22:20:19.918Z,4.43
2023-01-31T22:22:48.535Z,4.03
2023-01-31T22:25:15.433Z,4.55
2023-01-31T22:27:42.092Z,4.22
2023-01-31T22:30:16.120Z,3.58
2023-01-31T22:32:43.847Z,4.85
2023-01-31T22:35:10.788Z,4.80
2023-01-31T22:37:37.443Z,4.32
2023-01-31T22:40:04.563Z,5.50
2023-01-31T22:42:31.352Z,3.90
2023-01-31T22:44:58.042Z,4.90
2023-01-31T22:47:25.362Z,4.82
2023-01-31T22:49:52.209Z,4.50
2023-01-31T22:52:18.835Z,3.95
2023-01-31T22:54:45.626Z,3.50
2023-01-31T22:57:12.496Z,3.40
2023-01-31T22:59:39.272Z,4.07
2023-01-31T23:02:06.743Z,3.92
2023-01-31T23:04:33.867Z,4.43
2023-01-31T23:11:53.964Z,3.85
2023-01-31T23:14:20.702Z,3.80
2023-01-31T23:17:05.709Z,4.75
2023-01-31T23:19:32.351Z,3.65
2023-01-31T23:22:01.251Z,4.57
2023-01-31T23:24:27.787Z,4.10
2023-01-31T23:26:56.461Z,4.00
2023-01-31T23:29:23.354Z,3.63
2023-01-31T23:31:50.079Z,4.65
2023-01-31T23:34:16.881Z,3.78
2023-01-31T23:36:43.783Z,4.30
2023-01-31T23:41:37.170Z,2.80
2023-01-31T23:44:04.226Z,3.88
2023-01-31T23:46:31.350Z,3.92
2023-01-31T23:48:58.084Z,4.18
2023-01-31T23:51:24.932Z,4.80
2023-01-31T23:53:51.497Z,4.22
2023-01-31T23:56:18.151Z,4.57
2023-01-31T23:58:44.960Z,3.35
